Salinas, California
Current Conditions -  °F | °C
As of 9:53 AM on Monday 26 Jan 2015 (Local Time) from KSNS Reporting Station
Clear Clear  
Wind Chill: 59°   Ceiling: Unl
Heat Index: 59°   Visibility: 10mi
Dew Point: 37°   Wind: 17mph
Humidity: 44%   Direction: 110°ESE
Pressure: 30.01"   Gusts: NA
Location:  36.67°N, 121.65°W
Report Text: KSNS 261753Z 11015KT 10SM CLR 15/03 A3001 RMK AO2 SLP172 T01500028 10156 20106 53006
Loading
Personal Weather Stations






























Interactive Weather Map New forecast layout! Learn more

10-Day Weather Forecast

Advertisements
Track Severe Weather on mobile